University of Wyoming, Wyoming
Current Conditions -  °F | °C
As of 6:53 AM on Friday 31 Oct 2014 (Local Time) from KLAR Reporting Station
Clear Clear  
Wind Chill: -6°   Ceiling: Unl
Heat Index: -1°   Visibility: 10mi
Dew Point: -4°   Wind: 14mph
Humidity: 76%   Direction: 170°S
Pressure: 30.27"   Gusts: NA
Location:  41.4218°N, 105.605°W
Report Text: KLAR 311253Z AUTO 17012KT 10SM CLR M01/M04 A3027 RMK AO2 SLP230 T10061044
Loading
Personal Weather Stations






























Interactive Weather Map
Tropical Storm Tracking
New forecast layout! Learn more

10-Day Weather Forecast

Advertisements
Track Severe Weather on mobile